Time;durP1;ratioP1;P1;durP2;ratioP2;P2;SDS_P1;SDS_P2;PMS_P1;PMS_P2;Temp;Humidity;BMP_temperature;BMP_pressure;BME280_temperature;BME280_humidity;BME280_pressure;Samples;Min_cycle;Max_cycle;Signal;HPM_P1;HPM_P2
2022/10/17 00:02:25;;;;;;;43.43;28.10;;;;;;;9.13;100.00;98624.56;6056497;29;20235;-70
2022/10/17 00:05:27;;;;;;;40.17;30.10;;;;;;;9.12;100.00;98629.94;6083708;29;20923;-69
2022/10/17 00:08:29;;;;;;;46.03;28.70;;;;;;;9.07;100.00;98622.31;6070002;29;20263;-69
2022/10/17 00:11:31;;;;;;;45.17;30.70;;;;;;;9.07;100.00;98630.22;6087182;29;20596;-69
2022/10/17 00:14:33;;;;;;;43.57;30.87;;;;;;;9.01;100.00;98629.69;6087338;29;20233;-69
2022/10/17 00:17:37;;;;;;;55.23;33.47;;;;;;;9.04;100.00;98626.91;6079643;29;20704;-69
2022/10/17 00:20:39;;;;;;;46.87;32.07;;;;;;;9.04;100.00;98633.00;6061516;29;20227;-69
2022/10/17 00:23:41;;;;;;;39.57;28.73;;;;;;;9.03;100.00;98630.47;6087756;29;20229;-69
2022/10/17 00:26:43;;;;;;;46.13;30.47;;;;;;;9.07;100.00;98634.63;6071385;29;20238;-69
2022/10/17 00:29:49;;;;;;;47.17;29.43;;;;;;;9.05;100.00;98637.34;6070315;29;20239;-69
2022/10/17 00:32:51;;;;;;;41.47;28.23;;;;;;;9.03;100.00;98635.72;6085956;29;20237;-69
2022/10/17 00:36:13;;;;;;;40.80;28.20;;;;;;;9.00;100.00;98634.13;6087619;29;20256;-68
2022/10/17 00:39:16;;;;;;;39.50;27.30;;;;;;;8.95;100.00;98632.72;6055545;29;20263;-69
2022/10/17 00:42:18;;;;;;;40.60;28.57;;;;;;;8.91;100.00;98631.19;6069849;29;20216;-69
2022/10/17 00:45:30;;;;;;;37.10;28.27;;;;;;;8.87;100.00;98638.44;6070212;29;20712;-69
2022/10/17 00:48:32;;;;;;;39.13;28.53;;;;;;;8.84;100.00;98633.34;6086649;29;20245;-69
2022/10/17 00:51:41;;;;;;;43.90;28.97;;;;;;;8.83;100.00;98631.63;6069886;29;20233;-68
2022/10/17 00:54:47;;;;;;;41.27;28.13;;;;;;;8.78;100.00;98631.06;6069187;29;20638;-70
2022/10/17 00:57:50;;;;;;;40.63;28.20;;;;;;;8.75;100.00;98631.22;6054133;29;20232;-69
2022/10/17 01:00:53;;;;;;;41.17;29.60;;;;;;;8.72;100.00;98626.13;6066098;29;20323;-69
2022/10/17 01:03:54;;;;;;;41.90;29.23;;;;;;;8.76;100.00;98618.00;6085060;29;20704;-69
2022/10/17 01:06:57;;;;;;;33.43;25.90;;;;;;;8.72;100.00;98618.25;6069274;29;20621;-69
2022/10/17 01:09:59;;;;;;;38.87;26.70;;;;;;;8.72;100.00;98624.34;6087158;29;20627;-69
2022/10/17 01:13:33;;;;;;;36.33;25.93;;;;;;;8.69;100.00;98621.03;6069293;29;20254;-69
2022/10/17 01:16:43;;;;;;;37.47;25.53;;;;;;;8.68;100.00;98622.84;6078450;29;20240;-68
2022/10/17 01:20:04;;;;;;;40.70;29.13;;;;;;;8.68;100.00;98617.59;6065279;29;20235;-68
2022/10/17 01:23:45;;;;;;;35.73;25.13;;;;;;;8.67;100.00;98613.25;6070654;29;20668;-69
2022/10/17 01:27:06;;;;;;;38.17;26.70;;;;;;;8.62;100.00;98614.44;6069088;29;20823;-70
2022/10/17 01:30:25;;;;;;;34.17;26.03;;;;;;;8.56;100.00;98614.81;6068890;29;20550;-69
2022/10/17 01:33:45;;;;;;;33.53;25.27;;;;;;;8.53;100.00;98615.81;6073405;29;20228;-68
2022/10/17 01:37:00;;;;;;;50.13;29.07;;;;;;;8.50;100.00;98608.09;6068505;29;20232;-69
2022/10/17 01:40:05;;;;;;;35.33;25.70;;;;;;;8.48;100.00;98608.19;6086289;29;20728;-69
2022/10/17 01:43:16;;;;;;;37.43;25.97;;;;;;;8.45;100.00;98603.13;6068771;29;20251;-69
2022/10/17 01:46:25;;;;;;;33.30;24.10;;;;;;;8.42;100.00;98600.66;6068497;29;20608;-69
2022/10/17 01:49:30;;;;;;;35.13;25.07;;;;;;;8.37;100.00;98599.22;6068316;29;20232;-69
2022/10/17 01:52:38;;;;;;;37.80;25.40;;;;;;;8.37;100.00;98599.22;6069541;29;20905;-69
2022/10/17 01:55:44;;;;;;;32.07;24.07;;;;;;;8.36;100.00;98597.53;6069297;29;20340;-69
2022/10/17 01:58:52;;;;;;;41.70;25.23;;;;;;;8.34;100.00;98602.88;6068197;29;20235;-69
2022/10/17 02:01:56;;;;;;;36.63;24.87;;;;;;;8.33;100.00;98600.31;6068181;29;20379;-69
2022/10/17 02:05:01;;;;;;;36.43;26.20;;;;;;;8.31;100.00;98599.53;6057548;29;20735;-69
2022/10/17 02:08:04;;;;;;;33.83;23.80;;;;;;;8.28;100.00;98599.72;6073575;29;20244;-70
2022/10/17 02:11:13;;;;;;;40.37;25.07;;;;;;;8.24;100.00;98601.66;6074114;29;20236;-69
2022/10/17 02:14:30;;;;;;;34.77;25.07;;;;;;;8.23;100.00;98605.22;6072619;29;20247;-71
2022/10/17 02:18:03;;;;;;;37.57;26.57;;;;;;;8.23;100.00;98596.47;6078281;29;20227;-69
2022/10/17 02:21:30;;;;;;;39.93;25.93;;;;;;;8.22;100.00;98600.91;6077037;29;20234;-69
2022/10/17 02:24:41;;;;;;;33.10;24.47;;;;;;;8.19;100.00;98600.19;6073385;29;20227;-69
2022/10/17 02:28:15;;;;;;;36.00;25.77;;;;;;;8.15;100.00;98597.78;6057285;29;20318;-69
2022/10/17 02:31:30;;;;;;;35.93;24.57;;;;;;;8.13;100.00;98602.25;6089191;29;20334;-69
2022/10/17 02:34:43;;;;;;;34.43;25.13;;;;;;;8.11;100.00;98604.13;6089750;29;20247;-70
2022/10/17 02:37:46;;;;;;;35.83;26.30;;;;;;;8.10;100.00;98609.47;6057684;29;20250;-69
2022/10/17 02:40:51;;;;;;;37.97;26.63;;;;;;;8.09;100.00;98608.59;6072486;29;20382;-69
2022/10/17 02:43:54;;;;;;;39.33;27.60;;;;;;;8.12;100.00;98602.34;6072701;29;20243;-69
2022/10/17 02:47:10;;;;;;;41.83;27.83;;;;;;;8.15;100.00;98617.94;6072026;29;20242;-70
2022/10/17 02:50:12;;;;;;;35.50;26.03;;;;;;;8.13;100.00;98615.41;6072447;29;20246;-69
2022/10/17 02:53:23;;;;;;;40.57;28.33;;;;;;;8.12;100.00;98624.22;6072393;29;20234;-69
2022/10/17 02:56:30;;;;;;;44.63;27.80;;;;;;;8.12;100.00;98623.38;6071923;29;20231;-69
2022/10/17 02:59:35;;;;;;;38.53;26.13;;;;;;;8.13;100.00;98618.03;6072609;29;20255;-70
2022/10/17 03:02:43;;;;;;;42.43;27.63;;;;;;;8.12;100.00;98626.84;6063190;29;20253;-69
2022/10/17 03:05:45;;;;;;;40.33;27.27;;;;;;;8.08;100.00;98620.09;6072334;29;20738;-69
2022/10/17 03:08:47;;;;;;;37.37;24.97;;;;;;;8.05;100.00;98622.03;6072173;29;20322;-69
2022/10/17 03:11:50;;;;;;;37.00;24.33;;;;;;;7.99;100.00;98617.94;6073238;29;20259;-69
2022/10/17 03:14:52;;;;;;;40.13;25.23;;;;;;;7.99;100.00;98625.81;6070729;29;20611;-69
2022/10/17 03:17:54;;;;;;;33.07;24.00;;;;;;;7.98;100.00;98625.94;6056782;29;20232;-70
2022/10/17 03:20:56;;;;;;;33.97;23.67;;;;;;;7.97;100.00;98632.97;6057338;29;20259;-69
2022/10/17 03:23:58;;;;;;;33.60;23.37;;;;;;;7.95;100.00;98634.81;6071905;29;20783;-69
2022/10/17 03:27:01;;;;;;;34.53;24.80;;;;;;;7.94;100.00;98633.13;6089052;29;20235;-70
2022/10/17 03:30:04;;;;;;;36.30;24.77;;;;;;;7.92;100.00;98631.50;6071602;29;20215;-70
2022/10/17 03:33:08;;;;;;;35.23;24.37;;;;;;;7.89;100.00;98640.38;6071643;29;20627;-70
2022/10/17 03:36:13;;;;;;;31.67;23.60;;;;;;;7.85;100.00;98644.13;6071916;29;20371;-69
2022/10/17 03:39:15;;;;;;;32.03;23.70;;;;;;;7.83;100.00;98653.88;6071412;29;20291;-70
2022/10/17 03:42:18;;;;;;;30.83;22.50;;;;;;;7.78;100.00;98656.75;6071299;29;20710;-69
2022/10/17 03:45:20;;;;;;;30.57;23.93;;;;;;;7.74;100.00;98652.59;6070457;29;20227;-69
2022/10/17 03:48:22;;;;;;;34.40;23.77;;;;;;;7.69;100.00;98656.38;6088155;29;20727;-69
2022/10/17 03:51:25;;;;;;;37.90;25.07;;;;;;;7.67;100.00;98664.38;6055368;29;20237;-69
2022/10/17 03:54:34;;;;;;;31.57;22.77;;;;;;;7.67;100.00;98660.88;6087154;29;20237;-69
2022/10/17 03:57:36;;;;;;;32.90;23.30;;;;;;;7.67;100.00;98658.25;6071082;29;20239;-70
2022/10/17 04:00:41;;;;;;;36.77;25.87;;;;;;;7.71;100.00;98659.78;6037286;29;20303;-71
2022/10/17 04:03:43;;;;;;;36.47;24.13;;;;;;;7.68;100.00;98658.19;6088011;29;20720;-70
2022/10/17 04:06:45;;;;;;;34.50;24.60;;;;;;;7.66;100.00;98667.06;6070961;29;20245;-69
2022/10/17 04:09:47;;;;;;;37.83;25.63;;;;;;;7.65;100.00;98662.75;6070880;29;20232;-69
2022/10/17 04:12:53;;;;;;;37.47;25.37;;;;;;;7.63;100.00;98664.59;6070084;29;20234;-69
2022/10/17 04:16:01;;;;;;;33.57;24.23;;;;;;;7.63;100.00;98664.59;6068821;29;20235;-69
2022/10/17 04:19:03;;;;;;;37.87;25.43;;;;;;;7.63;100.00;98669.84;6075436;29;20298;-69
2022/10/17 04:22:12;;;;;;;35.37;25.07;;;;;;;7.61;100.00;98672.53;6086220;29;20239;-69
2022/10/17 04:25:15;;;;;;;39.87;25.97;;;;;;;7.61;100.00;98675.19;6069862;29;20255;-69
2022/10/17 04:28:20;;;;;;;34.23;24.07;;;;;;;7.64;100.00;98676.81;6069966;29;20232;-69
2022/10/17 04:31:23;;;;;;;37.33;25.87;;;;;;;7.60;100.00;98675.25;6086577;29;20232;-70
2022/10/17 04:34:49;;;;;;;39.27;25.57;;;;;;;7.55;100.00;98682.53;6081110;29;20656;-69
2022/10/17 04:37:53;;;;;;;40.37;27.13;;;;;;;7.50;100.00;98684.53;6070399;29;20340;-69
2022/10/17 04:41:02;;;;;;;34.10;25.17;;;;;;;7.48;100.00;98695.16;6070526;29;20715;-70
2022/10/17 04:44:04;;;;;;;36.80;24.70;;;;;;;7.48;100.00;98696.94;6087657;29;20235;-69
2022/10/17 04:47:10;;;;;;;38.03;25.37;;;;;;;7.46;100.00;98683.88;6069968;29;20258;-69
2022/10/17 04:50:13;;;;;;;33.60;24.30;;;;;;;7.44;100.00;98698.00;6069172;29;20730;-69
2022/10/17 04:53:15;;;;;;;35.17;24.30;;;;;;;7.41;100.00;98691.97;6086731;29;20892;-69
2022/10/17 04:56:20;;;;;;;34.07;24.43;;;;;;;7.39;100.00;98688.56;6053874;29;20235;-69
2022/10/17 04:59:22;;;;;;;30.67;22.90;;;;;;;7.37;100.00;98690.44;6085940;29;20228;-70
2022/10/17 05:02:33;;;;;;;35.93;24.57;;;;;;;7.35;100.00;98694.91;6069573;29;20606;-70
2022/10/17 05:05:40;;;;;;;39.90;25.97;;;;;;;7.33;100.00;98701.16;6070356;29;20243;-70
2022/10/17 05:08:45;;;;;;;36.57;25.60;;;;;;;7.29;100.00;98716.22;6069260;29;20234;-72
2022/10/17 05:11:47;;;;;;;44.10;26.37;;;;;;;7.29;100.00;98715.38;6068758;29;20260;-69
2022/10/17 05:14:49;;;;;;;39.23;25.03;;;;;;;7.28;100.00;98718.94;6069174;29;20325;-69
2022/10/17 05:17:54;;;;;;;46.77;28.80;;;;;;;7.28;100.00;98714.53;6068975;29;20242;-68
2022/10/17 05:20:57;;;;;;;40.63;26.67;;;;;;;7.29;100.00;98718.84;6064920;29;20246;-69
2022/10/17 05:23:59;;;;;;;38.33;27.53;;;;;;;7.29;100.00;98729.34;6053913;29;20711;-71
2022/10/17 05:27:01;;;;;;;45.83;28.53;;;;;;;7.28;100.00;98730.31;6068678;29;20248;-69
2022/10/17 05:30:03;;;;;;;41.33;25.87;;;;;;;7.31;100.00;98740.63;6053845;29;20715;-68
2022/10/17 05:33:07;;;;;;;43.63;28.00;;;;;;;7.31;100.00;98735.38;6069426;29;20717;-69
2022/10/17 05:36:10;;;;;;;42.13;26.50;;;;;;;7.30;100.00;98736.31;6087892;29;20246;-69
2022/10/17 05:39:18;;;;;;;36.20;25.70;;;;;;;7.31;100.00;98743.25;6068350;29;20219;-68
2022/10/17 05:42:22;;;;;;;44.93;28.23;;;;;;;7.34;100.00;98740.47;6069182;29;20241;-68
2022/10/17 05:45:24;;;;;;;41.43;28.80;;;;;;;7.38;100.00;98751.69;6068755;29;20716;-68
2022/10/17 05:48:26;;;;;;;37.83;26.43;;;;;;;7.42;100.00;98753.22;6073423;29;20225;-68
2022/10/17 05:51:29;;;;;;;46.80;28.30;;;;;;;7.44;100.00;98764.50;6099341;29;20693;-68
2022/10/17 05:54:31;;;;;;;38.60;25.97;;;;;;;7.45;100.00;98768.84;6100548;29;20241;-68
2022/10/17 05:57:33;;;;;;;40.87;27.90;;;;;;;7.47;100.00;98767.00;6083978;29;20198;-68
2022/10/17 06:00:37;;;;;;;47.47;29.00;;;;;;;7.49;100.00;98769.50;6066902;29;20522;-69
2022/10/17 06:03:39;;;;;;;41.47;26.20;;;;;;;7.52;100.00;98772.00;6085120;29;20231;-68
2022/10/17 06:06:41;;;;;;;38.87;26.17;;;;;;;7.54;100.00;98770.16;6067926;29;20231;-68
2022/10/17 06:09:43;;;;;;;36.43;25.87;;;;;;;7.54;100.00;98781.50;6053499;29;20454;-68
2022/10/17 06:12:46;;;;;;;37.33;26.67;;;;;;;7.56;100.00;98784.91;6069197;29;20231;-69
2022/10/17 06:15:49;;;;;;;44.23;26.03;;;;;;;7.60;100.00;98780.31;6066859;29;20240;-68
2022/10/17 06:18:52;;;;;;;42.67;28.43;;;;;;;7.66;100.00;98793.16;6067027;29;20240;-68
2022/10/17 06:21:54;;;;;;;37.10;26.17;;;;;;;7.70;100.00;98790.28;6083465;29;20278;-69
2022/10/17 06:24:58;;;;;;;38.87;27.20;;;;;;;7.78;100.00;98789.94;6086022;29;20922;-68
2022/10/17 06:28:00;;;;;;;41.23;28.60;;;;;;;7.85;100.00;98793.06;6084837;29;20249;-69
2022/10/17 06:31:05;;;;;;;41.30;28.03;;;;;;;7.90;100.00;98789.28;6082945;29;20263;-69
2022/10/17 06:34:07;;;;;;;39.37;24.83;;;;;;;7.95;100.00;98797.78;6067110;29;20590;-68
2022/10/17 06:37:09;;;;;;;37.83;26.77;;;;;;;8.00;100.00;98801.00;6067842;29;20238;-68
2022/10/17 06:40:15;;;;;;;41.67;27.40;;;;;;;8.05;100.00;98806.88;6083888;29;20329;-68
2022/10/17 06:43:18;;;;;;;40.90;28.10;;;;;;;8.11;100.00;98809.19;6084197;29;20246;-68
2022/10/17 06:46:51;;;;;;;42.30;28.10;;;;;;;8.17;100.00;98810.66;6076805;29;20239;-68
2022/10/17 06:49:54;;;;;;;40.67;28.37;;;;;;;8.22;100.00;98824.41;6071693;29;20326;-68
2022/10/17 06:53:15;;;;;;;35.03;24.37;;;;;;;8.31;100.00;98825.69;6072488;29;20246;-69
2022/10/17 06:56:22;;;;;;;36.30;25.87;;;;;;;8.39;100.00;98816.50;6064754;29;20693;-69
2022/10/17 06:59:57;;;;;;;40.97;29.00;;;;;;;8.47;100.00;98821.38;6028621;29;20588;-68
2022/10/17 07:03:06;;;;;;;42.27;28.50;;;;;;;8.55;100.00;98834.09;6033057;29;20328;-68
2022/10/17 07:06:09;;;;;;;38.80;27.23;;;;;;;8.65;100.00;98830.91;6063994;29;20221;-68
2022/10/17 07:09:13;;;;;;;44.60;31.13;;;;;;;8.77;100.00;98829.41;6049171;29;20219;-68
2022/10/17 07:12:15;;;;;;;40.97;28.43;;;;;;;8.88;100.00;98832.28;6064352;29;20221;-68
2022/10/17 07:15:19;;;;;;;40.53;28.77;;;;;;;8.98;100.00;98832.63;6066191;29;20708;-69
2022/10/17 07:18:21;;;;;;;42.10;27.27;;;;;;;9.12;100.00;98835.31;6056136;29;20237;-68
2022/10/17 07:21:23;;;;;;;41.07;28.77;;;;;;;9.26;100.00;98838.06;6073121;29;20700;-68
2022/10/17 07:24:25;;;;;;;42.37;30.10;;;;;;;9.42;100.00;98838.88;6065867;29;20303;-68
2022/10/17 07:27:42;;;;;;;41.40;30.63;;;;;;;9.56;100.00;98841.56;6063546;29;20250;-68
2022/10/17 07:30:45;;;;;;;40.50;27.00;;;;;;;9.63;100.00;98842.06;6064232;29;20263;-68
2022/10/17 07:33:51;;;;;;;53.30;39.73;;;;;;;9.76;100.00;98834.28;6063728;29;20247;-68
2022/10/17 07:36:54;;;;;;;56.27;40.33;;;;;;;9.93;100.00;98834.13;6063534;29;20765;-68
2022/10/17 07:39:56;;;;;;;52.47;38.53;;;;;;;10.08;100.00;98830.56;6064000;29;20250;-69
2022/10/17 07:42:59;;;;;;;63.13;42.23;;;;;;;10.24;100.00;98838.47;6063757;29;20721;-68
2022/10/17 07:46:04;;;;;;;53.97;39.80;;;;;;;10.36;100.00;98832.47;6064461;29;20728;-69
2022/10/17 07:49:07;;;;;;;53.17;37.67;;;;;;;10.56;100.00;98831.22;6063176;29;20598;-69
2022/10/17 07:52:10;;;;;;;66.83;42.53;;;;;;;10.75;100.00;98831.78;6063783;29;20248;-68
2022/10/17 07:55:12;;;;;;;57.17;39.97;;;;;;;10.92;100.00;98828.91;6077849;29;20246;-69
2022/10/17 07:58:15;;;;;;;51.20;39.07;;;;;;;11.12;100.00;98838.22;6063041;29;20239;-69
2022/10/17 08:01:18;;;;;;;60.40;42.30;;;;;;;11.28;100.00;98832.81;6064081;29;20227;-68
2022/10/17 08:04:19;;;;;;;50.23;37.60;;;;;;;11.43;100.00;98842.38;6064706;29;20238;-69
2022/10/17 08:07:21;;;;;;;46.23;35.77;;;;;;;11.55;100.00;98838.94;6064470;29;20238;-69
2022/10/17 08:10:30;;;;;;;44.87;34.87;;;;;;;11.64;100.00;98835.69;6063704;29;20319;-70
2022/10/17 08:13:33;;;;;;;45.87;35.97;;;;;;;11.69;100.00;98838.00;6063578;29;20246;-69
2022/10/17 08:16:35;;;;;;;38.20;31.57;;;;;;;11.73;100.00;98845.66;6055485;29;20235;-69
2022/10/17 08:19:39;;;;;;;41.20;32.07;;;;;;;11.88;100.00;98853.56;6047681;29;20266;-68
2022/10/17 08:22:41;;;;;;;36.33;30.70;;;;;;;12.04;100.00;98854.22;6064419;29;20317;-68
2022/10/17 08:25:43;;;;;;;35.23;30.57;;;;;;;12.31;100.00;98854.13;6064492;29;20610;-69
2022/10/17 08:28:45;;;;;;;34.63;29.00;;;;;;;12.58;100.00;79431.66;6064680;29;20239;-69
2022/10/17 08:31:47;;;;;;;30.30;26.73;;;;;;;12.87;100.00;79616.75;6065780;29;20239;-68
2022/10/17 08:34:56;;;;;;;28.70;24.97;;;;;;;-144.22;100.00;60274.75;6063135;29;20760;-68
2022/10/17 08:38:02;;;;;;;28.60;24.67;;;;;;;-144.22;100.00;60274.75;6063786;29;20240;-68
2022/10/17 08:41:11;;;;;;;26.87;23.93;;;;;;;-144.22;100.00;60274.75;6064278;29;20242;-68
2022/10/17 08:44:41;;;;;;;28.70;24.73;;;;;;;-144.22;100.00;60274.75;6064071;29;20284;-69
2022/10/17 08:48:07;;;;;;;29.80;24.37;;;;;;;-144.22;100.00;60274.75;6064778;29;20232;-69
2022/10/17 08:51:16;;;;;;;30.67;26.50;;;;;;;14.19;100.00;60274.75;6061441;29;20834;-68
2022/10/17 08:54:47;;;;;;;29.53;25.53;;;;;;;-144.22;100.00;60274.75;6064847;29;20244;-69
2022/10/17 08:57:49;;;;;;;32.20;26.70;;;;;;;16.55;100.00;60274.75;6085555;29;20696;-69
2022/10/17 09:01:05;;;;;;;31.30;25.53;;;;;;;14.97;100.00;60274.75;6083758;29;20242;-69
2022/10/17 09:04:35;;;;;;;30.90;25.87;;;;;;;-144.22;100.00;60274.75;6067429;29;20287;-69
2022/10/17 09:07:49;;;;;;;29.63;24.73;;;;;;;-144.22;100.00;60274.75;6085847;29;20224;-70
2022/10/17 09:11:02;;;;;;;30.30;25.33;;;;;;;-144.22;100.00;60274.75;6086430;29;20232;-70
2022/10/17 09:14:35;;;;;;;27.90;24.90;;;;;;;-144.22;100.00;60274.75;6068092;29;20657;-70
2022/10/17 09:17:53;;;;;;;30.23;23.57;;;;;;;-144.22;100.00;60274.75;6086212;29;20227;-70
2022/10/17 09:21:21;;;;;;;26.20;22.93;;;;;;;-144.22;100.00;60274.75;6055794;29;20245;-70
2022/10/17 09:24:41;;;;;;;29.47;25.17;;;;;;;-144.22;100.00;60274.75;6086012;29;20232;-69
2022/10/17 09:28:09;;;;;;;28.97;24.30;;;;;;;-144.22;100.00;60274.75;6085549;29;20606;-70
2022/10/17 09:31:19;;;;;;;32.20;25.40;;;;;;;-144.22;100.00;60274.75;6085337;29;20235;-69
2022/10/17 09:34:23;;;;;;;27.63;23.47;;;;;;;-144.22;100.00;60274.75;6068989;29;20738;-69
2022/10/17 09:37:31;;;;;;;27.27;24.33;;;;;;;-144.22;100.00;60274.75;6084932;29;20235;-68
2022/10/17 09:40:34;;;;;;;30.43;26.40;;;;;;;-144.22;100.00;60274.75;6084872;29;20897;-68
2022/10/17 09:43:39;;;;;;;26.77;23.87;;;;;;;-144.22;100.00;60274.75;6069318;29;20730;-68
2022/10/17 09:46:50;;;;;;;26.97;24.07;;;;;;;-144.22;100.00;60274.75;6084965;29;20244;-68
2022/10/17 09:49:52;;;;;;;25.57;22.53;;;;;;;-144.22;100.00;60274.75;6068652;29;20272;-68
2022/10/17 09:52:58;;;;;;;27.83;22.90;;;;;;;-144.22;100.00;60274.75;6085314;29;20586;-67
2022/10/17 09:56:03;;;;;;;22.93;20.43;;;;;;;-144.22;100.00;60274.75;6086242;29;20228;-68
2022/10/17 09:59:05;;;;;;;23.30;20.90;;;;;;;-144.22;100.00;60274.75;6068320;29;20238;-68
2022/10/17 10:02:21;;;;;;;28.97;22.60;;;;;;;-144.22;100.00;60274.75;6073017;29;20608;-67
2022/10/17 10:05:23;;;;;;;28.90;23.57;;;;;;;-144.22;100.00;60274.75;6060574;29;20604;-67
2022/10/17 10:08:32;;;;;;;31.50;23.80;;;;;;;18.92;100.00;60274.75;6082377;29;20235;-69
2022/10/17 10:11:55;;;;;;;26.90;24.00;;;;;;;-144.22;100.00;60274.75;6085776;29;20231;-68
2022/10/17 10:14:58;;;;;;;25.87;23.07;;;;;;;19.03;100.00;60274.75;6084476;29;20708;-67
2022/10/17 10:18:00;;;;;;;28.80;24.23;;;;;;;-144.22;100.00;60274.75;6065226;29;20236;-67
2022/10/17 10:21:07;;;;;;;24.00;21.47;;;;;;;-144.22;100.00;60274.75;6066920;29;20234;-67
2022/10/17 10:24:12;;;;;;;27.63;23.13;;;;;;;19.75;100.00;60274.75;6086394;29;20225;-68
2022/10/17 10:27:16;;;;;;;29.97;23.97;;;;;;;-144.22;100.00;60274.75;6089599;29;20706;-68
2022/10/17 10:30:27;;;;;;;26.67;23.57;;;;;;;-144.22;100.00;60274.75;6073091;29;20220;-68
2022/10/17 10:33:32;;;;;;;25.60;22.87;;;;;;;-144.22;100.00;60274.75;6090712;29;20235;-67
2022/10/17 10:36:44;;;;;;;27.13;23.33;;;;;;;20.22;100.00;60274.75;6090848;29;20239;-69
2022/10/17 10:39:49;;;;;;;27.27;22.70;;;;;;;20.37;100.00;60274.75;6089743;29;20236;-68
2022/10/17 10:42:55;;;;;;;22.97;20.17;;;;;;;-144.22;100.00;60274.75;6089507;29;20236;-68
2022/10/17 10:46:05;;;;;;;26.10;22.67;;;;;;;-144.22;100.00;60274.75;6088677;29;20267;-68
2022/10/17 10:49:28;;;;;;;27.87;24.63;;;;;;;20.76;100.00;60274.75;6088478;29;20236;-68
2022/10/17 10:52:39;;;;;;;21.53;19.33;;;;;;;-144.22;100.00;60274.75;6089374;29;20236;-69
2022/10/17 10:55:53;;;;;;;23.37;20.20;;;;;;;-144.22;100.00;60274.75;6088923;29;20236;-68
2022/10/17 10:59:01;;;;;;;25.27;20.87;;;;;;;-144.22;100.00;60274.75;6088222;29;20232;-67
2022/10/17 11:02:19;;;;;;;25.10;21.97;;;;;;;-144.22;100.00;60274.75;6087738;29;20236;-69
2022/10/17 11:05:41;;;;;;;23.60;20.97;;;;;;;21.69;100.00;60274.75;6072406;29;20232;-68
2022/10/17 11:09:11;;;;;;;22.53;20.13;;;;;;;-144.22;100.00;60274.75;6089407;29;20327;-68
2022/10/17 11:12:20;;;;;;;22.40;19.80;;;;;;;-144.22;100.00;60274.75;6076721;29;20240;-69
2022/10/17 11:15:41;;;;;;;21.13;18.97;;;;;;;104.84;100.00;60274.75;6089092;29;20239;-68
2022/10/17 11:19:07;;;;;;;21.83;19.53;;;;;;;-144.22;100.00;60274.75;6054038;29;20232;-69
2022/10/17 11:22:22;;;;;;;21.97;19.67;;;;;;;-144.22;100.00;60274.75;6070470;29;20282;-68
2022/10/17 11:25:33;;;;;;;21.23;19.03;;;;;;;-144.22;100.00;60274.75;6072953;29;20231;-68
2022/10/17 11:28:36;;;;;;;24.23;20.50;;;;;;;-144.22;100.00;60274.75;6087246;29;20758;-68
2022/10/17 11:31:43;;;;;;;21.67;18.37;;;;;;;-144.22;100.00;60274.75;6088626;29;20747;-68
2022/10/17 11:34:50;;;;;;;21.00;18.03;;;;;;;-144.22;100.00;60274.75;6089908;29;20279;-69
2022/10/17 11:38:04;;;;;;;20.37;18.17;;;;;;;-144.22;100.00;60274.75;6071447;29;20235;-68
2022/10/17 11:41:11;;;;;;;19.77;17.53;;;;;;;-144.22;100.00;60274.75;6088247;29;20763;-69
2022/10/17 11:44:26;;;;;;;19.03;16.90;;;;;;;-144.22;100.00;60274.75;6088696;29;20231;-68
2022/10/17 11:47:53;;;;;;;20.23;16.80;;;;;;;-144.22;100.00;60274.75;6070571;29;20240;-68
2022/10/17 11:51:05;;;;;;;17.87;16.07;;;;;;;-144.22;100.00;60274.75;6071080;29;20245;-69
2022/10/17 11:54:48;;;;;;;18.60;15.93;;;;;;;-144.22;100.00;60274.75;6086983;29;20261;-69
2022/10/17 11:58:08;;;;;;;19.37;16.00;;;;;;;-144.22;100.00;60274.75;6071247;29;20247;-69
2022/10/17 12:01:52;;;;;;;17.17;14.82;;;;;;;-144.22;100.00;60274.75;6083073;29;20229;-68
2022/10/17 12:05:01;;;;;;;16.90;15.13;;;;;;;-144.22;100.00;60274.75;6081742;29;20240;-68
2022/10/17 12:08:08;;;;;;;15.80;13.65;;;;;;;-144.22;100.00;60274.75;6086758;29;20236;-68
2022/10/17 12:11:35;;;;;;;17.15;15.25;;;;;;;-144.22;100.00;60274.75;6071568;29;20234;-68
2022/10/17 12:14:38;;;;;;;16.38;14.65;;;;;;;-144.22;100.00;60274.75;6087278;29;20239;-68
2022/10/17 12:17:44;;;;;;;19.70;14.93;;;;;;;-144.22;100.00;60274.75;6086978;29;20688;-68
2022/10/17 12:20:59;;;;;;;16.10;14.35;;;;;;;-144.22;100.00;60274.75;6080402;29;20704;-67
2022/10/17 12:24:02;;;;;;;16.33;14.20;;;;;;;-144.22;100.00;60274.75;6086524;29;20621;-68
2022/10/17 12:27:29;;;;;;;17.90;14.10;;;;;;;-144.22;100.00;60274.75;6070803;29;20211;-68
2022/10/17 12:30:33;;;;;;;15.60;14.02;;;;;;;188.01;100.00;60274.75;6070292;29;20606;-70
2022/10/17 12:33:50;;;;;;;15.23;13.68;;;;;;;-144.22;100.00;60274.75;6070804;29;20220;-68
2022/10/17 12:36:51;;;;;;;14.50;13.00;;;;;;;-144.22;100.00;60274.75;6068634;29;20619;-69
2022/10/17 12:39:53;;;;;;;17.17;13.65;;;;;;;25.25;100.00;60274.75;6087012;29;20258;-67
2022/10/17 12:42:55;;;;;;;16.52;13.15;;;;;;;25.56;100.00;60274.75;6087026;29;20604;-68
2022/10/17 12:46:02;;;;;;;14.45;12.93;;;;;;;-144.22;100.00;60274.75;6069409;29;20274;-69
2022/10/17 12:49:36;;;;;;;15.00;13.55;;;;;;;-144.22;100.00;60274.75;6087314;29;20615;-68
2022/10/17 12:52:38;;;;;;;14.85;12.80;;;;;;;104.84;100.00;60274.75;6086080;29;20248;-68
2022/10/17 12:55:40;;;;;;;15.07;12.73;;;;;;;-144.22;100.00;60274.75;6086843;29;20816;-68
2022/10/17 12:58:46;;;;;;;14.15;12.65;;;;;;;-144.22;100.00;60274.75;6085608;29;20232;-68
2022/10/17 13:01:52;;;;;;;17.15;13.73;;;;;;;-144.22;100.00;60274.75;6068426;29;20599;-68
2022/10/17 13:05:21;;;;;;;13.75;12.32;;;;;;;-144.22;100.00;60274.75;6086527;29;20228;-69
2022/10/17 13:08:30;;;;;;;18.27;12.85;;;;;;;32.77;100.00;60274.75;6086358;29;20240;-69
2022/10/17 13:11:35;;;;;;;14.95;13.18;;;;;;;33.02;100.00;60274.75;6086732;29;20244;-71
2022/10/17 13:14:39;;;;;;;14.60;12.63;;;;;;;-144.22;100.00;60274.75;6069859;29;20712;-69
2022/10/17 13:17:41;;;;;;;15.73;12.45;;;;;;;33.15;100.00;60274.75;6086456;29;20657;-68
2022/10/17 13:20:54;;;;;;;16.27;11.73;;;;;;;32.97;100.00;60274.75;6083854;29;20237;-69
2022/10/17 13:23:56;;;;;;;14.73;12.63;;;;;;;-144.22;100.00;60274.75;6084392;29;20240;-68
2022/10/17 13:26:58;;;;;;;13.73;12.25;;;;;;;33.26;100.00;60274.75;6069930;29;20247;-69
2022/10/17 13:30:21;;;;;;;15.07;12.13;;;;;;;33.08;100.00;60274.75;6075319;29;20212;-70
2022/10/17 13:33:32;;;;;;;14.52;12.25;;;;;;;33.10;100.00;60274.75;6086206;29;20322;-68
2022/10/17 13:36:34;;;;;;;14.15;12.05;;;;;;;-144.22;100.00;60274.75;6084656;29;20238;-68
2022/10/17 13:39:42;;;;;;;12.60;11.35;;;;;;;29.53;100.00;60274.75;6086165;29;20274;-67
2022/10/17 13:43:00;;;;;;;13.48;11.75;;;;;;;-144.22;100.00;60274.75;6086689;29;20264;-71
2022/10/17 13:46:04;;;;;;;12.90;11.50;;;;;;;32.13;100.00;60274.75;6068549;29;20334;-68
2022/10/17 13:49:38;;;;;;;14.13;12.30;;;;;;;25.64;100.00;60274.75;6085996;29;20615;-70
2022/10/17 13:52:40;;;;;;;13.50;12.10;;;;;;;-144.22;100.00;60274.75;6087669;29;20734;-68
2022/10/17 13:55:59;;;;;;;16.17;13.38;;;;;;;-144.22;100.00;60274.75;6069554;29;20245;-68
2022/10/17 13:59:23;;;;;;;14.85;12.13;;;;;;;-144.22;100.00;60274.75;6088802;29;20318;-67
2022/10/17 14:02:33;;;;;;;14.83;11.70;;;;;;;-144.22;100.00;60274.75;6078382;29;20327;-68
2022/10/17 14:05:35;;;;;;;14.57;13.00;;;;;;;-144.22;100.00;60274.75;6088343;29;20231;-68
2022/10/17 14:08:45;;;;;;;13.30;12.03;;;;;;;-144.22;100.00;60274.75;6061472;29;20232;-69
2022/10/17 14:11:59;;;;;;;13.13;11.73;;;;;;;-144.22;100.00;60274.75;6081149;29;20247;-68
2022/10/17 14:15:04;;;;;;;14.03;11.93;;;;;;;-144.22;100.00;60274.75;6094239;29;20724;-67
2022/10/17 14:18:17;;;;;;;13.30;11.87;;;;;;;-144.22;100.00;60274.75;6092700;29;20232;-68